Startpagina
METAR-TAF:

METAR-TAF

Vliegvelden :

Vliegbasis Koksijde

Koksijde, België

breedte: 51-05N, lengte: 002-39E, hoogte: 4 m

Actueel weer

Dit bericht is 32 minuten geleden gemaakt, om 15:55 UTC
Wind 11 kt uit het noordnoordoosten
Temperatuur 15°C
Vochtigheid 77%
Druk 1011 hPa
Zicht 10 km of meer

METAR: EBFN 201555Z AUTO 02011KT 9999 BKN013/// BKN045/// 15/11 Q1011 GRN

Tijdstip: 18:27 (16:27 UTC)

Verwachting

Dit bericht is 4 uur en het 46 minuten geleden gemaakt, om 11:41 UTC
Verwachting geldig van 20 om 13 UTC tot 20 om 22 UTC
Wind 10 kt uit het noordnoordoosten
Zicht 10 km of meer
Weinig wolken op 2000 ft
Tijdelijke
van 20 om 13 UTC tot 20 om 18 UTC
Wind 12 kt uit het noordoosten met uitschieters tot 22 kt

TAF: EBFN 201141Z 2013/2022 03010KT 9999 FEW020 TEMPO 2013/2018 04012G22KT BY EBWM

Waarnemingen en weersverwachtingen van meer dan 4000 vliegvelden (METAR en TAF).

De beschikbare stations zijn de gele en rode punten op de kaart.

Ga met uw muis naar het station om de naam te zien.

Klik dan om waarnemingen en weersverwachtingen te zien.

kaart wijzigen: klik op de groene knoppen met een zwart kruis om in te zoomen, op de groene knop met een streepje om uit te zoomen of op de groene pijlen voor aangrenzende kaarten.


METAR-TAF: